createdAt,value
2022-10-05T00:02:37.682Z,96527.53
2022-10-05T00:05:30.560Z,96549.16
2022-10-05T00:08:21.450Z,96546.88
2022-10-05T00:11:08.015Z,96549.97
2022-10-05T00:13:54.037Z,96533.84
2022-10-05T00:16:40.276Z,96536.38
2022-10-05T00:19:38.009Z,96538.59
2022-10-05T00:22:32.708Z,96532.19
2022-10-05T00:25:21.394Z,96532.03
2022-10-05T00:28:15.773Z,96531.34
2022-10-05T00:31:01.888Z,96539.72
2022-10-05T00:33:48.488Z,96521.81
2022-10-05T00:36:34.685Z,96534.53
2022-10-05T00:39:21.459Z,96530.19
2022-10-05T00:42:38.340Z,96537.56
2022-10-05T00:45:29.649Z,96531.00
2022-10-05T00:48:25.324Z,96539.72
2022-10-05T00:51:29.314Z,96532.66
2022-10-05T00:54:54.675Z,96538.09
2022-10-05T00:57:49.813Z,96532.19
2022-10-05T01:00:45.666Z,96519.00
2022-10-05T01:04:00.906Z,96530.72
2022-10-05T01:07:23.580Z,96521.53
2022-10-05T01:10:28.058Z,96528.72
2022-10-05T01:13:38.556Z,96511.97
2022-10-05T01:16:36.619Z,96536.78
2022-10-05T01:19:40.272Z,96549.44
2022-10-05T01:22:41.477Z,96545.03
2022-10-05T01:25:51.180Z,96542.53
2022-10-05T01:28:48.149Z,96549.91
2022-10-05T01:31:45.734Z,96547.56
2022-10-05T01:34:51.583Z,96549.97
2022-10-05T01:38:22.145Z,96554.31
2022-10-05T01:41:19.747Z,96551.28
2022-10-05T01:44:14.686Z,96554.66
2022-10-05T01:47:06.315Z,96549.91
2022-10-05T01:50:04.618Z,96535.03
2022-10-05T01:53:23.364Z,96523.19
2022-10-05T01:56:30.792Z,96545.75
2022-10-05T01:59:26.081Z,96559.16
2022-10-05T02:02:17.119Z,96562.19
2022-10-05T02:05:14.442Z,96557.72
2022-10-05T02:08:03.729Z,96568.56
2022-10-05T02:11:06.310Z,96562.41
2022-10-05T02:14:12.997Z,96561.56
2022-10-05T02:17:06.898Z,96566.41
2022-10-05T02:19:57.923Z,96567.97
2022-10-05T02:22:49.795Z,96572.97
2022-10-05T02:25:38.929Z,96592.94
2022-10-05T02:28:47.475Z,96568.47
2022-10-05T02:31:41.422Z,96583.25
2022-10-05T02:34:29.273Z,96573.69
2022-10-05T02:37:54.311Z,96591.47
2022-10-05T02:40:44.402Z,96587.41
2022-10-05T02:43:41.088Z,96583.59
2022-10-05T02:46:50.843Z,96587.94
2022-10-05T02:49:50.583Z,96594.00
2022-10-05T02:52:59.599Z,96579.28
2022-10-05T02:56:11.337Z,96592.34
2022-10-05T02:59:12.482Z,96593.50
2022-10-05T03:02:36.656Z,96596.41
2022-10-05T03:05:59.910Z,96595.03
2022-10-05T03:08:52.172Z,96583.31
2022-10-05T03:11:50.398Z,96596.75
2022-10-05T03:15:02.480Z,96611.00
2022-10-05T03:17:58.979Z,96618.22
2022-10-05T03:21:12.781Z,96589.72
2022-10-05T03:24:44.475Z,96601.00
2022-10-05T03:27:37.330Z,96623.13
2022-10-05T03:30:25.753Z,96616.25
2022-10-05T03:33:33.035Z,96625.16
2022-10-05T03:36:57.880Z,96625.53
2022-10-05T03:40:36.249Z,96624.53
2022-10-05T03:43:42.269Z,96628.53
2022-10-05T03:46:50.685Z,96626.03
2022-10-05T03:49:43.288Z,96614.81
2022-10-05T03:52:44.214Z,96625.03
2022-10-05T03:55:40.920Z,96614.50
2022-10-05T03:58:43.157Z,96633.09
2022-10-05T04:01:40.414Z,96605.94
2022-10-05T04:04:51.096Z,96625.25
2022-10-05T04:07:43.590Z,96619.34
2022-10-05T04:10:34.102Z,96590.41
2022-10-05T04:13:43.564Z,96599.63
2022-10-05T04:16:38.938Z,96611.69
2022-10-05T04:19:34.881Z,96620.06
2022-10-05T04:22:31.099Z,96622.44
2022-10-05T04:25:21.686Z,96621.25
2022-10-05T04:28:32.312Z,96621.28
2022-10-05T04:31:38.025Z,96634.00
2022-10-05T04:34:24.344Z,96636.88
2022-10-05T04:37:19.385Z,96634.53
2022-10-05T04:40:31.589Z,96636.22
2022-10-05T04:43:25.021Z,96637.56
2022-10-05T04:46:24.711Z,96641.75
2022-10-05T04:49:44.742Z,96646.78
2022-10-05T04:53:18.723Z,96645.28
2022-10-05T04:56:12.097Z,96645.28
2022-10-05T04:59:20.635Z,96648.63
2022-10-05T05:02:28.412Z,96657.47
2022-10-05T05:05:35.021Z,96639.84
2022-10-05T05:08:30.147Z,96650.81
2022-10-05T05:11:28.330Z,96659.97
2022-10-05T05:14:28.044Z,96656.66
2022-10-05T05:17:32.826Z,96653.44
2022-10-05T05:20:44.517Z,96646.72
2022-10-05T05:23:42.642Z,96663.47
2022-10-05T05:26:41.997Z,96660.81
2022-10-05T05:29:42.964Z,96651.44
2022-10-05T05:32:35.772Z,96666.84
2022-10-05T05:35:27.992Z,96665.50
2022-10-05T05:38:14.089Z,96684.44
2022-10-05T05:41:10.045Z,96676.56
2022-10-05T05:44:20.758Z,96685.94
2022-10-05T05:47:27.917Z,96699.53
2022-10-05T05:50:30.468Z,96697.22
2022-10-05T05:53:29.810Z,96699.41
2022-10-05T05:56:39.704Z,96691.31
2022-10-05T05:59:33.304Z,96696.22
2022-10-05T06:02:24.161Z,96701.56
2022-10-05T06:05:31.718Z,96714.66
2022-10-05T06:08:45.740Z,96713.66
2022-10-05T06:11:48.301Z,96692.53
2022-10-05T06:14:51.073Z,96730.41
2022-10-05T06:17:45.495Z,96709.28
2022-10-05T06:20:40.330Z,96716.31
2022-10-05T06:23:38.756Z,96717.66
2022-10-05T06:27:16.757Z,96742.97
2022-10-05T06:30:15.521Z,96723.00
2022-10-05T06:33:28.785Z,96730.22
2022-10-05T06:36:21.795Z,96741.09
2022-10-05T06:39:45.508Z,96744.47
2022-10-05T06:42:49.805Z,96748.50
2022-10-05T06:46:04.498Z,96750.81
2022-10-05T06:50:12.606Z,96750.34
2022-10-05T06:54:00.946Z,96746.47
2022-10-05T06:57:03.176Z,96743.75
2022-10-05T07:00:04.718Z,96749.59
2022-10-05T07:02:58.068Z,96754.28
2022-10-05T07:05:55.443Z,96748.56
2022-10-05T07:09:02.146Z,96754.06
2022-10-05T07:12:14.201Z,96738.56
2022-10-05T07:15:13.122Z,96763.22
2022-10-05T07:18:26.081Z,96746.59
2022-10-05T07:21:15.099Z,96766.31
2022-10-05T07:24:13.348Z,96761.59
2022-10-05T07:27:20.228Z,96771.28
2022-10-05T07:30:10.215Z,96766.38
2022-10-05T07:33:51.989Z,96765.53
2022-10-05T07:37:11.909Z,96758.41
2022-10-05T07:40:38.061Z,96769.72
2022-10-05T07:44:03.051Z,96765.75
2022-10-05T07:47:03.799Z,96771.94
2022-10-05T07:50:14.559Z,96774.06
2022-10-05T07:53:14.419Z,96775.72
2022-10-05T07:56:05.637Z,96775.75
2022-10-05T07:59:07.864Z,96761.75
2022-10-05T08:02:02.905Z,96782.78
2022-10-05T08:05:04.175Z,96781.03
2022-10-05T08:07:54.696Z,96775.53
2022-10-05T08:10:44.222Z,96769.88
2022-10-05T08:13:58.764Z,96782.34
2022-10-05T08:16:46.741Z,96758.09
2022-10-05T08:19:40.274Z,96762.66
2022-10-05T08:22:30.894Z,96761.88
2022-10-05T08:25:32.731Z,96767.69
2022-10-05T08:28:30.321Z,96772.22
2022-10-05T08:31:27.082Z,96759.94
2022-10-05T08:34:42.648Z,96762.78
2022-10-05T08:37:37.764Z,96773.94
2022-10-05T08:40:42.659Z,96777.41
2022-10-05T08:43:59.824Z,96773.69
2022-10-05T08:46:50.948Z,96770.16
2022-10-05T08:50:19.206Z,96767.25
2022-10-05T08:53:26.631Z,96765.47
2022-10-05T08:56:28.940Z,96770.66
2022-10-05T08:59:43.269Z,96756.41
2022-10-05T09:02:44.728Z,96769.16
2022-10-05T09:05:40.017Z,96745.44
2022-10-05T09:08:40.381Z,96753.91
2022-10-05T09:11:36.903Z,96741.72
2022-10-05T09:15:07.153Z,96746.56
2022-10-05T09:18:07.258Z,96744.78
2022-10-05T09:20:54.877Z,96740.03
2022-10-05T09:23:46.354Z,96751.50
2022-10-05T09:26:59.266Z,96740.91
2022-10-05T09:30:24.360Z,96748.63
2022-10-05T09:33:27.087Z,96730.31
2022-10-05T09:36:44.990Z,96736.16
2022-10-05T09:40:15.513Z,96734.75
2022-10-05T09:43:19.693Z,96735.66
2022-10-05T09:46:08.784Z,96752.56
2022-10-05T09:49:01.269Z,96758.19
2022-10-05T09:52:09.843Z,96749.25
2022-10-05T09:55:14.440Z,96742.59
2022-10-05T09:58:31.971Z,96756.50
2022-10-05T10:01:52.542Z,96755.88
2022-10-05T10:05:05.590Z,96757.44
2022-10-05T10:08:13.582Z,96754.81
2022-10-05T10:11:12.657Z,96755.81
2022-10-05T10:14:24.974Z,96759.66
2022-10-05T10:17:29.345Z,96766.94
2022-10-05T10:20:27.283Z,96751.97
2022-10-05T10:23:37.641Z,96756.84
2022-10-05T10:26:42.507Z,96754.44
2022-10-05T10:29:37.666Z,96758.31
2022-10-05T10:32:38.682Z,96745.22
2022-10-05T10:35:32.191Z,96738.81
2022-10-05T10:38:40.241Z,96746.31
2022-10-05T10:41:38.385Z,96738.19
2022-10-05T10:44:37.405Z,96735.09
2022-10-05T10:47:48.028Z,96736.31
2022-10-05T10:50:44.811Z,96729.44
2022-10-05T10:54:02.603Z,96729.69
2022-10-05T10:56:48.763Z,96731.78
2022-10-05T11:00:01.596Z,96733.25
2022-10-05T11:03:00.361Z,96722.00
2022-10-05T11:06:05.178Z,96715.97
2022-10-05T11:09:12.813Z,96711.78
2022-10-05T11:12:40.136Z,96702.22
2022-10-05T11:15:26.932Z,96694.50
2022-10-05T11:18:20.761Z,96705.56
2022-10-05T11:21:37.084Z,96702.84
2022-10-05T11:24:39.096Z,96698.47
2022-10-05T11:27:31.552Z,96683.84
2022-10-05T11:30:47.457Z,96662.66
2022-10-05T11:34:00.617Z,96672.59
2022-10-05T11:37:00.154Z,96659.22
2022-10-05T11:39:55.255Z,96669.22
2022-10-05T11:43:11.805Z,96676.09
2022-10-05T11:46:22.494Z,96675.44
2022-10-05T11:49:50.192Z,96662.13
2022-10-05T11:52:44.940Z,96669.00
2022-10-05T11:55:45.212Z,96676.13
2022-10-05T11:58:46.662Z,96664.19
2022-10-05T12:01:41.357Z,96671.94
2022-10-05T12:04:56.162Z,96666.50
2022-10-05T12:07:49.632Z,96661.47
2022-10-05T12:11:31.268Z,96669.84
2022-10-05T12:14:38.958Z,96655.22
2022-10-05T12:17:43.751Z,96658.44
2022-10-05T12:21:03.806Z,96663.88
2022-10-05T12:23:54.837Z,96647.19
2022-10-05T12:26:50.239Z,96657.81
2022-10-05T12:29:44.397Z,96647.81
2022-10-05T12:33:01.889Z,96654.94
2022-10-05T12:35:59.126Z,96654.06
2022-10-05T12:39:03.707Z,96648.97
2022-10-05T12:42:09.189Z,96654.00
2022-10-05T12:45:01.136Z,96656.00
2022-10-05T12:48:19.113Z,96651.97
2022-10-05T12:51:11.094Z,96648.97
2022-10-05T12:54:28.159Z,96648.09
2022-10-05T12:57:32.658Z,96644.00
2022-10-05T13:00:23.018Z,96647.56
2022-10-05T13:03:18.380Z,96632.41
2022-10-05T13:06:13.669Z,96647.66
2022-10-05T13:09:08.695Z,96647.97
2022-10-05T13:12:00.588Z,96639.91
2022-10-05T13:15:31.164Z,96634.03
2022-10-05T13:18:35.978Z,96629.81
2022-10-05T13:21:31.168Z,96629.84
2022-10-05T13:24:27.789Z,96634.91
2022-10-05T13:27:19.029Z,96637.69
2022-10-05T13:30:31.691Z,96631.66
2022-10-05T13:33:53.542Z,96634.13
2022-10-05T13:36:56.766Z,96616.41
2022-10-05T13:39:50.173Z,96614.88
2022-10-05T13:42:59.178Z,96615.09
2022-10-05T13:45:52.788Z,96613.69
2022-10-05T13:48:56.852Z,96616.31
2022-10-05T13:52:14.802Z,96614.75
2022-10-05T13:55:12.861Z,96610.28
2022-10-05T13:58:11.015Z,96614.03
2022-10-05T14:01:03.257Z,96603.22
2022-10-05T14:04:17.402Z,96611.81
2022-10-05T14:07:34.881Z,96602.91
2022-10-05T14:10:40.260Z,96610.69
2022-10-05T14:13:45.116Z,96610.00
2022-10-05T14:16:33.323Z,96615.91
2022-10-05T14:19:21.963Z,96622.16
2022-10-05T14:22:14.285Z,96610.19
2022-10-05T14:25:09.783Z,96613.78
2022-10-05T14:28:02.196Z,96608.09
2022-10-05T14:31:16.875Z,96607.78
2022-10-05T14:34:27.046Z,96603.88
2022-10-05T14:37:27.565Z,96610.16
2022-10-05T14:40:27.469Z,96607.28
2022-10-05T14:43:16.725Z,96612.41
2022-10-05T14:46:23.380Z,96606.28
2022-10-05T14:49:14.302Z,96611.03
2022-10-05T14:52:00.377Z,96600.44
2022-10-05T14:55:01.001Z,96580.69
2022-10-05T14:58:08.819Z,96601.47
2022-10-05T15:01:01.801Z,96605.59
2022-10-05T15:04:00.216Z,96603.66
2022-10-05T15:07:04.213Z,96607.31
2022-10-05T15:10:26.811Z,96611.94
2022-10-05T15:13:15.176Z,96609.19
2022-10-05T15:16:06.666Z,96590.31
2022-10-05T15:19:02.545Z,96597.91
2022-10-05T15:22:07.498Z,96598.69
2022-10-05T15:25:14.728Z,96608.06
2022-10-05T15:28:10.184Z,96610.00
2022-10-05T15:31:14.801Z,96602.88
2022-10-05T15:34:05.478Z,96604.19
2022-10-05T15:36:56.791Z,96600.84
2022-10-05T15:39:52.777Z,96621.69
2022-10-05T15:42:43.882Z,96612.97
2022-10-05T15:45:33.386Z,96615.47
2022-10-05T15:48:24.850Z,96603.16
2022-10-05T15:51:25.847Z,96626.66
2022-10-05T15:54:54.725Z,96624.56
2022-10-05T15:58:08.472Z,96634.34
2022-10-05T16:01:04.549Z,96627.16
2022-10-05T16:03:54.577Z,96626.50
2022-10-05T16:07:19.598Z,96645.63
2022-10-05T16:10:23.465Z,96641.94
2022-10-05T16:13:44.771Z,96659.97
2022-10-05T16:16:36.913Z,96644.66
2022-10-05T16:19:41.548Z,96656.00
2022-10-05T16:22:52.169Z,96652.88
2022-10-05T16:26:09.103Z,96650.47
2022-10-05T16:28:58.037Z,96652.41
2022-10-05T16:32:02.611Z,96643.25
2022-10-05T16:35:21.044Z,96650.38
2022-10-05T16:38:14.129Z,96654.38
2022-10-05T16:41:20.278Z,96660.91
2022-10-05T16:44:40.318Z,96669.28
2022-10-05T16:47:45.051Z,96662.41
2022-10-05T16:51:13.888Z,96674.31
2022-10-05T16:54:29.119Z,96675.31
2022-10-05T16:57:23.992Z,96681.38
2022-10-05T17:00:21.301Z,96682.00
2022-10-05T17:03:11.295Z,96684.25
2022-10-05T17:06:17.557Z,96681.34
2022-10-05T17:09:18.911Z,96693.84
2022-10-05T17:12:29.891Z,96697.34
2022-10-05T17:15:32.721Z,96704.19
2022-10-05T17:18:38.491Z,96702.81
2022-10-05T17:21:24.356Z,96716.56
2022-10-05T17:24:35.304Z,96720.47
2022-10-05T17:27:30.350Z,96699.13
2022-10-05T17:30:28.483Z,96711.00
2022-10-05T17:33:29.004Z,96723.00
2022-10-05T17:36:18.932Z,96714.19
2022-10-05T17:39:18.440Z,96723.25
2022-10-05T17:42:46.515Z,96732.31
2022-10-05T17:45:32.652Z,96727.75
2022-10-05T17:48:37.365Z,96723.25
2022-10-05T17:51:48.019Z,96712.31
2022-10-05T17:55:05.108Z,96730.34
2022-10-05T17:57:52.512Z,96731.38
2022-10-05T18:00:51.793Z,96731.06
2022-10-05T18:03:50.100Z,96743.47
2022-10-05T18:06:37.689Z,96732.78
2022-10-05T18:09:24.781Z,96735.50
2022-10-05T18:12:16.879Z,96709.88
2022-10-05T18:15:08.772Z,96745.31
2022-10-05T18:18:32.767Z,96731.03
2022-10-05T18:21:28.634Z,96728.91
2022-10-05T18:24:29.620Z,96742.03
2022-10-05T18:27:25.525Z,96715.00
2022-10-05T18:30:23.144Z,96748.94
2022-10-05T18:33:40.180Z,96736.78
2022-10-05T18:36:44.616Z,96728.44
2022-10-05T18:39:46.138Z,96743.84
2022-10-05T18:42:40.018Z,96758.00
2022-10-05T18:45:29.829Z,96767.28
2022-10-05T18:48:49.807Z,96765.50
2022-10-05T18:51:54.213Z,96769.06
2022-10-05T18:54:55.333Z,96754.72
2022-10-05T18:58:04.343Z,96770.06
2022-10-05T19:00:59.592Z,96776.50
2022-10-05T19:04:15.872Z,96782.53
2022-10-05T19:07:11.070Z,96790.16
2022-10-05T19:10:08.753Z,96794.25
2022-10-05T19:13:00.892Z,96802.31
2022-10-05T19:15:58.737Z,96790.13
2022-10-05T19:18:50.993Z,96796.38
2022-10-05T19:21:52.560Z,96796.78
2022-10-05T19:24:39.932Z,96804.22
2022-10-05T19:27:39.139Z,96804.78
2022-10-05T19:30:27.422Z,96797.59
2022-10-05T19:33:51.410Z,96801.63
2022-10-05T19:36:55.811Z,96791.25
2022-10-05T19:39:58.966Z,96793.94
2022-10-05T19:43:03.890Z,96811.91
2022-10-05T19:46:05.605Z,96812.50
2022-10-05T19:48:54.905Z,96821.09
2022-10-05T19:51:49.506Z,96820.97
2022-10-05T19:54:35.781Z,96823.66
2022-10-05T19:57:22.908Z,96802.72
2022-10-05T20:00:20.039Z,96828.44
2022-10-05T20:03:15.231Z,96827.41
2022-10-05T20:06:06.121Z,96820.25
2022-10-05T20:09:00.141Z,96816.41
2022-10-05T20:11:51.292Z,96828.69
2022-10-05T20:14:59.270Z,96825.34
2022-10-05T20:18:04.081Z,96837.47
2022-10-05T20:20:50.717Z,96840.53
2022-10-05T20:23:38.226Z,96824.13
2022-10-05T20:26:56.457Z,96843.09
2022-10-05T20:29:44.282Z,96846.47
2022-10-05T20:32:30.919Z,96846.66
2022-10-05T20:35:18.629Z,96850.31
2022-10-05T20:38:05.028Z,96848.34
2022-10-05T20:40:51.125Z,96843.28
2022-10-05T20:43:39.315Z,96847.00
2022-10-05T20:46:25.618Z,96840.66
2022-10-05T20:49:15.123Z,96848.88
2022-10-05T20:52:06.010Z,96839.00
2022-10-05T20:54:53.898Z,96824.06
2022-10-05T20:57:42.256Z,96844.41
2022-10-05T21:00:51.082Z,96819.06
2022-10-05T21:03:37.045Z,96810.69
2022-10-05T21:06:22.975Z,96823.63
2022-10-05T21:09:11.656Z,96810.84
2022-10-05T21:11:57.683Z,96824.97
2022-10-05T21:14:44.054Z,96823.78
2022-10-05T21:17:30.952Z,96821.59
2022-10-05T21:20:17.164Z,96801.31
2022-10-05T21:23:03.059Z,96818.41
2022-10-05T21:25:49.037Z,96816.09
2022-10-05T21:28:35.330Z,96812.38
2022-10-05T21:31:21.576Z,96810.03
2022-10-05T21:34:08.175Z,96805.53
2022-10-05T21:36:54.134Z,96816.09
2022-10-05T21:39:40.215Z,96795.81
2022-10-05T21:42:26.522Z,96807.53
2022-10-05T21:45:12.676Z,96813.59
2022-10-05T21:47:58.538Z,96810.75
2022-10-05T21:50:45.211Z,96819.97
2022-10-05T21:53:33.322Z,96814.09
2022-10-05T21:56:21.346Z,96807.72
2022-10-05T21:59:09.616Z,96800.03
2022-10-05T22:01:55.588Z,96802.84
2022-10-05T22:04:41.469Z,96819.47
2022-10-05T22:07:29.107Z,96818.28
2022-10-05T22:10:15.408Z,96817.59
2022-10-05T22:13:02.378Z,96813.59
2022-10-05T22:15:48.536Z,96818.47
2022-10-05T22:18:35.453Z,96805.69
2022-10-05T22:21:21.526Z,96804.38
2022-10-05T22:24:08.423Z,96813.56
2022-10-05T22:26:54.578Z,96815.59
2022-10-05T22:29:41.509Z,96807.53
2022-10-05T22:32:27.814Z,96812.88
2022-10-05T22:35:13.791Z,96809.69
2022-10-05T22:37:59.609Z,96821.59
2022-10-05T22:40:45.523Z,96813.22
2022-10-05T22:43:31.496Z,96816.88
2022-10-05T22:46:18.348Z,96821.25
2022-10-05T22:49:04.594Z,96816.53
2022-10-05T22:51:51.247Z,96812.34
2022-10-05T22:54:37.525Z,96813.50
2022-10-05T22:57:23.667Z,96805.44
2022-10-05T23:00:11.877Z,96810.16
2022-10-05T23:02:57.775Z,96807.63
2022-10-05T23:05:43.745Z,96800.09
2022-10-05T23:08:34.305Z,96810.81
2022-10-05T23:11:23.786Z,96808.13
2022-10-05T23:14:09.824Z,96801.88
2022-10-05T23:16:55.766Z,96797.69
2022-10-05T23:19:41.753Z,96803.06
2022-10-05T23:22:28.069Z,96807.13
2022-10-05T23:25:15.145Z,96797.16
2022-10-05T23:28:02.536Z,96802.88
2022-10-05T23:30:48.869Z,96804.38
2022-10-05T23:33:35.160Z,96805.03
2022-10-05T23:36:31.436Z,96801.88
2022-10-05T23:39:17.426Z,96802.84
2022-10-05T23:42:03.395Z,96802.84
2022-10-05T23:44:49.521Z,96804.34
2022-10-05T23:47:35.574Z,96811.38
2022-10-05T23:50:24.879Z,96812.72
2022-10-05T23:53:11.124Z,96810.03
2022-10-05T23:55:57.425Z,96811.19
2022-10-05T23:58:43.630Z,96808.34
